createdAt,value
2019-04-11T00:00:11.054Z,20.23
2019-04-11T00:02:42.833Z,18.05
2019-04-11T00:05:14.766Z,16.73
2019-04-11T00:07:46.748Z,17.40
2019-04-11T00:10:18.764Z,17.27
2019-04-11T00:12:50.587Z,16.37
2019-04-11T00:15:23.015Z,15.18
2019-04-11T00:17:54.494Z,13.90
2019-04-11T00:20:28.330Z,13.28
2019-04-11T00:22:59.967Z,13.13
2019-04-11T00:25:31.835Z,13.68
2019-04-11T00:28:04.019Z,14.83
2019-04-11T00:30:36.688Z,15.18
2019-04-11T00:33:08.272Z,14.53
2019-04-11T00:35:44.028Z,14.53
2019-04-11T00:38:16.027Z,13.93
2019-04-11T00:40:47.715Z,13.75
2019-04-11T00:43:30.500Z,13.80
2019-04-11T00:45:52.272Z,13.68
2019-04-11T00:48:23.904Z,14.13
2019-04-11T00:50:55.972Z,14.78
2019-04-11T00:53:27.787Z,21.68
2019-04-11T00:55:59.885Z,19.90
2019-04-11T00:58:31.909Z,20.35
2019-04-11T01:01:03.905Z,20.70
2019-04-11T01:03:35.990Z,21.25
2019-04-11T01:06:07.513Z,23.38
2019-04-11T01:08:39.940Z,23.32
2019-04-11T01:11:11.991Z,26.27
2019-04-11T01:13:49.086Z,26.48
2019-04-11T01:16:24.224Z,30.97
2019-04-11T01:18:55.710Z,33.63
2019-04-11T01:21:28.473Z,36.03
2019-04-11T01:23:59.968Z,39.92
2019-04-11T01:26:32.919Z,46.02
2019-04-11T01:29:07.088Z,48.92
2019-04-11T01:34:12.624Z,45.83
2019-04-11T01:36:45.087Z,42.78
2019-04-11T01:39:37.081Z,42.90
2019-04-11T01:42:09.141Z,38.55
2019-04-11T01:44:41.040Z,39.35
2019-04-11T01:47:15.007Z,41.18
2019-04-11T01:49:46.743Z,42.08
2019-04-11T01:52:18.259Z,42.45
2019-04-11T01:54:51.881Z,40.75
2019-04-11T01:57:23.614Z,40.35
2019-04-11T01:59:55.668Z,38.70
2019-04-11T02:02:32.697Z,38.50
2019-04-11T02:05:08.364Z,39.38
2019-04-11T02:07:39.743Z,38.08
2019-04-11T02:10:12.678Z,40.15
2019-04-11T02:12:44.159Z,39.70
2019-04-11T02:15:16.493Z,41.65
2019-04-11T02:17:48.801Z,39.42
2019-04-11T02:20:20.870Z,41.42
2019-04-11T02:23:06.768Z,44.35
2019-04-11T02:25:52.843Z,43.85
2019-04-11T02:28:24.455Z,43.42
2019-04-11T02:30:57.011Z,45.35
2019-04-11T02:33:28.629Z,43.63
2019-04-11T02:36:00.948Z,43.92
2019-04-11T02:38:34.789Z,46.40
2019-04-11T02:41:08.584Z,45.83
2019-04-11T02:43:42.073Z,48.57
2019-04-11T02:46:25.905Z,49.13
2019-04-11T02:48:46.404Z,49.88
2019-04-11T02:51:18.338Z,50.60
2019-04-11T02:53:51.831Z,50.10
2019-04-11T02:56:23.821Z,46.92
2019-04-11T02:58:57.879Z,49.17
2019-04-11T03:01:29.372Z,47.13
2019-04-11T03:04:02.007Z,48.65
2019-04-11T03:06:35.477Z,44.98
2019-04-11T03:09:07.832Z,44.85
2019-04-11T03:11:40.897Z,44.80
2019-04-11T03:14:14.170Z,45.43
2019-04-11T03:16:56.385Z,44.93
2019-04-11T03:19:35.684Z,41.53
2019-04-11T03:21:54.296Z,38.73
2019-04-11T03:24:27.133Z,37.23
2019-04-11T03:27:04.079Z,39.33
2019-04-11T03:29:35.400Z,38.08
2019-04-11T03:37:38.000Z,38.88
2019-04-11T03:40:06.043Z,35.13
2019-04-11T03:42:40.022Z,35.52
2019-04-11T03:47:41.282Z,34.48
2019-04-11T03:50:10.659Z,31.47
2019-04-11T03:52:38.924Z,30.17
2019-04-11T03:55:13.014Z,29.40
2019-04-11T03:57:44.437Z,30.40
2019-04-11T04:00:17.175Z,27.82
2019-04-11T04:02:49.535Z,23.45
2019-04-11T04:05:21.691Z,23.55
2019-04-11T04:07:55.206Z,23.10
2019-04-11T04:13:00.790Z,21.45
2019-04-11T04:15:49.864Z,22.77
2019-04-11T04:18:21.396Z,21.30
2019-04-11T04:21:06.086Z,22.67
2019-04-11T04:23:40.923Z,22.50
2019-04-11T04:26:14.615Z,22.45
2019-04-11T04:28:47.615Z,22.15
2019-04-11T04:31:20.609Z,21.75
2019-04-11T04:33:53.578Z,23.40
2019-04-11T04:36:27.302Z,23.73
2019-04-11T04:39:08.584Z,23.50
2019-04-11T04:41:51.857Z,24.45
2019-04-11T04:44:19.111Z,25.88
2019-04-11T04:49:25.527Z,25.35
2019-04-11T04:51:59.445Z,24.57
2019-04-11T04:54:33.041Z,25.32
2019-04-11T04:57:05.030Z,26.03
2019-04-11T04:59:38.407Z,22.85
2019-04-11T05:02:10.964Z,21.68
2019-04-11T05:04:43.798Z,20.80
2019-04-11T05:07:15.398Z,19.15
2019-04-11T05:09:50.140Z,19.07
2019-04-11T05:12:23.153Z,18.85
2019-04-11T05:14:56.071Z,19.17
2019-04-11T05:17:28.891Z,18.62
2019-04-11T05:20:03.019Z,17.95
2019-04-11T05:22:35.235Z,18.27
2019-04-11T05:25:07.064Z,19.45
2019-04-11T05:27:39.841Z,19.55
2019-04-11T05:30:16.729Z,20.12
2019-04-11T05:32:49.343Z,21.02
2019-04-11T05:35:22.794Z,21.52
2019-04-11T05:37:55.747Z,20.12
2019-04-11T05:40:28.127Z,22.17
2019-04-11T05:43:01.826Z,23.67
2019-04-11T05:45:33.830Z,24.77
2019-04-11T05:48:07.269Z,25.10
2019-04-11T05:50:43.289Z,26.17
2019-04-11T05:53:13.578Z,29.48
2019-04-11T05:55:47.487Z,29.10
2019-04-11T05:58:19.650Z,27.20
2019-04-11T06:00:57.820Z,20.97
2019-04-11T06:03:30.265Z,18.75
2019-04-11T06:06:12.943Z,18.52
2019-04-11T06:08:44.500Z,18.17
2019-04-11T06:11:22.141Z,17.85
2019-04-11T06:14:11.186Z,17.23
2019-04-11T06:16:50.348Z,17.05
2019-04-11T06:19:20.667Z,17.57
2019-04-11T06:21:58.058Z,46.65
2019-04-11T06:24:38.570Z,18.73
2019-04-11T06:27:18.349Z,19.60
2019-04-11T06:29:52.885Z,19.60
2019-04-11T06:32:43.695Z,21.07
2019-04-11T06:35:18.551Z,20.40
2019-04-11T06:38:10.084Z,22.22
2019-04-11T06:40:44.107Z,21.33
2019-04-11T06:43:26.347Z,20.52
2019-04-11T06:45:59.418Z,21.48
2019-04-11T06:48:33.773Z,21.33
2019-04-11T06:51:09.847Z,21.87
2019-04-11T06:53:44.080Z,20.95
2019-04-11T06:56:20.941Z,21.62
2019-04-11T06:58:56.862Z,22.80
2019-04-11T07:01:30.166Z,25.52
2019-04-11T07:04:03.337Z,25.50
2019-04-11T07:06:37.683Z,25.60
2019-04-11T07:09:30.830Z,26.70
2019-04-11T07:12:10.539Z,30.45
2019-04-11T07:14:55.815Z,29.92
2019-04-11T07:17:45.900Z,119.35
2019-04-11T07:20:20.695Z,27.62
2019-04-11T07:23:07.984Z,46.60
2019-04-11T07:25:58.092Z,24.92
2019-04-11T07:28:41.628Z,24.00
2019-04-11T07:31:15.014Z,22.52
2019-04-11T07:34:04.635Z,22.55
2019-04-11T07:36:58.366Z,23.07
2019-04-11T07:39:33.613Z,25.80
2019-04-11T07:42:13.677Z,25.62
2019-04-11T07:44:59.806Z,26.97
2019-04-11T07:47:41.558Z,23.38
2019-04-11T07:50:15.618Z,28.42
2019-04-11T07:53:01.373Z,20.55
2019-04-11T07:55:34.634Z,18.67
2019-04-11T07:58:23.960Z,17.82
2019-04-11T08:01:14.757Z,15.65
2019-04-11T08:03:49.839Z,12.98
2019-04-11T08:06:52.063Z,13.90
2019-04-11T08:09:28.982Z,14.70
2019-04-11T08:12:02.662Z,12.55
2019-04-11T08:14:42.512Z,13.72
2019-04-11T08:17:27.903Z,25.12
2019-04-11T08:19:57.451Z,11.28
2019-04-11T08:22:41.324Z,10.08
2019-04-11T08:25:31.556Z,10.20
2019-04-11T08:28:07.575Z,9.40
2019-04-11T08:30:46.887Z,9.38
2019-04-11T08:33:20.027Z,9.53
2019-04-11T08:35:55.132Z,7.93
2019-04-11T08:38:29.159Z,9.45
2019-04-11T08:41:19.877Z,8.85
2019-04-11T08:43:55.242Z,8.40
2019-04-11T08:49:09.827Z,8.20
2019-04-11T08:51:43.254Z,8.43
2019-04-11T08:57:07.530Z,8.45
2019-04-11T08:59:44.192Z,8.98
2019-04-11T09:02:18.546Z,14.00
2019-04-11T09:05:04.013Z,8.50
2019-04-11T09:07:32.119Z,7.45
2019-04-11T09:10:24.149Z,8.33
2019-04-11T09:13:02.817Z,6.45
2019-04-11T09:15:53.508Z,7.35
2019-04-11T09:18:32.363Z,6.92
2019-04-11T09:21:07.728Z,7.87
2019-04-11T09:23:39.917Z,5.97
2019-04-11T09:26:18.072Z,6.50
2019-04-11T09:28:51.487Z,6.30
2019-04-11T09:31:42.159Z,6.28
2019-04-11T09:34:35.682Z,5.67
2019-04-11T09:37:09.437Z,6.03
2019-04-11T09:39:47.663Z,6.05
2019-04-11T09:42:28.403Z,5.22
2019-04-11T09:45:03.578Z,10.30
2019-04-11T09:47:51.849Z,5.85
2019-04-11T09:50:28.734Z,6.37
2019-04-11T09:53:01.576Z,7.33
2019-04-11T09:55:51.102Z,5.25
2019-04-11T09:58:28.794Z,4.90
2019-04-11T10:01:18.200Z,5.25
2019-04-11T10:03:52.903Z,4.90
2019-04-11T10:09:13.423Z,5.47
2019-04-11T10:12:04.502Z,4.72
2019-04-11T10:14:37.701Z,5.17
2019-04-11T10:17:33.689Z,5.17
2019-04-11T10:20:06.652Z,4.33
2019-04-11T10:22:58.338Z,5.17
2019-04-11T10:25:32.478Z,4.78
2019-04-11T10:28:27.159Z,4.42
2019-04-11T10:31:04.285Z,4.08
2019-04-11T10:33:50.060Z,4.50
2019-04-11T10:36:31.870Z,3.55
2019-04-11T10:39:11.323Z,3.85
2019-04-11T10:41:50.542Z,4.12
2019-04-11T10:44:25.733Z,3.87
2019-04-11T10:47:02.086Z,4.20
2019-04-11T10:49:42.085Z,4.35
2019-04-11T10:52:24.691Z,4.58
2019-04-11T10:55:05.169Z,4.30
2019-04-11T10:57:42.346Z,4.67
2019-04-11T11:00:33.549Z,5.35
2019-04-11T11:03:18.197Z,4.05
2019-04-11T11:05:55.516Z,3.75
2019-04-11T11:08:39.845Z,3.50
2019-04-11T11:11:24.101Z,3.98
2019-04-11T11:14:02.539Z,3.52
2019-04-11T11:16:47.036Z,3.92
2019-04-11T11:19:50.081Z,4.25
2019-04-11T11:22:08.743Z,4.65
2019-04-11T11:25:00.205Z,5.45
2019-04-11T11:27:33.290Z,4.62
2019-04-11T11:30:25.223Z,5.05
2019-04-11T11:32:58.151Z,4.80
2019-04-11T11:35:50.438Z,4.30
2019-04-11T11:38:30.827Z,3.90
2019-04-11T11:41:07.990Z,4.00
2019-04-11T11:43:41.238Z,5.53
2019-04-11T11:46:30.078Z,4.85
2019-04-11T11:49:03.086Z,3.27
2019-04-11T11:51:37.367Z,4.10
2019-04-11T11:54:13.881Z,3.83
2019-04-11T11:56:48.937Z,3.80
2019-04-11T11:59:27.035Z,3.10
2019-04-11T12:02:00.664Z,3.50
2019-04-11T12:04:42.213Z,3.65
2019-04-11T12:07:16.704Z,3.87
2019-04-11T12:09:58.645Z,3.60
2019-04-11T12:12:38.019Z,3.58
2019-04-11T12:15:22.350Z,3.85
2019-04-11T12:17:58.128Z,3.10
2019-04-11T12:20:49.263Z,3.72
2019-04-11T12:23:48.651Z,3.15
2019-04-11T12:26:25.749Z,3.15
2019-04-11T12:29:30.803Z,3.35
2019-04-11T12:32:20.099Z,3.37
2019-04-11T12:35:03.974Z,3.17
2019-04-11T12:37:38.224Z,3.55
2019-04-11T12:40:47.384Z,3.27
2019-04-11T12:43:21.745Z,3.80
2019-04-11T12:46:03.919Z,3.83
2019-04-11T12:48:55.026Z,3.50
2019-04-11T12:51:45.773Z,3.67
2019-04-11T12:54:39.659Z,4.00
2019-04-11T12:57:35.968Z,3.70
2019-04-11T13:00:10.881Z,3.75
2019-04-11T13:03:01.679Z,3.40
2019-04-11T13:05:52.194Z,3.58
2019-04-11T13:08:38.862Z,3.45
2019-04-11T13:11:12.104Z,3.75
2019-04-11T13:13:45.186Z,3.47
2019-04-11T13:16:19.954Z,3.15
2019-04-11T13:19:15.201Z,5.17
2019-04-11T13:21:51.847Z,3.45
2019-04-11T13:24:31.580Z,3.42
2019-04-11T13:27:15.949Z,3.42
2019-04-11T13:30:07.576Z,24.57
2019-04-11T13:32:41.940Z,3.17
2019-04-11T13:35:15.824Z,4.15
2019-04-11T13:38:05.035Z,3.80
2019-04-11T13:40:44.495Z,3.72
2019-04-11T13:43:31.245Z,4.12
2019-04-11T13:46:15.672Z,152.35
2019-04-11T13:51:22.938Z,4.30
2019-04-11T13:54:12.746Z,4.22
2019-04-11T13:57:02.878Z,4.12
2019-04-11T13:59:38.482Z,4.58
2019-04-11T14:02:15.387Z,4.05
2019-04-11T14:05:04.746Z,4.55
2019-04-11T14:07:36.239Z,4.25
2019-04-11T14:10:09.743Z,4.30
2019-04-11T14:12:42.661Z,4.83
2019-04-11T14:15:22.832Z,13.03
2019-04-11T14:17:56.040Z,3.90
2019-04-11T14:20:31.955Z,4.00
2019-04-11T14:23:13.810Z,5.60
2019-04-11T14:25:58.794Z,4.60
2019-04-11T14:28:36.575Z,5.00
2019-04-11T14:31:09.994Z,3.95
2019-04-11T14:33:44.452Z,4.05
2019-04-11T14:36:34.024Z,4.00
2019-04-11T14:39:08.708Z,4.50
2019-04-11T14:41:59.840Z,13.35
2019-04-11T14:44:33.449Z,4.50
2019-04-11T14:47:09.733Z,4.55
2019-04-11T14:49:41.924Z,4.62
2019-04-11T14:52:17.682Z,4.53
2019-04-11T14:54:49.978Z,5.37
2019-04-11T14:57:26.196Z,4.97
2019-04-11T15:00:00.754Z,5.08
2019-04-11T15:02:52.205Z,5.03
2019-04-11T15:05:44.889Z,4.92
2019-04-11T15:08:22.689Z,4.55
2019-04-11T15:11:14.127Z,14.05
2019-04-11T15:13:48.807Z,4.33
2019-04-11T15:16:38.145Z,33.55
2019-04-11T15:19:11.444Z,6.10
2019-04-11T15:21:53.472Z,4.70
2019-04-11T15:24:26.519Z,4.70
2019-04-11T15:27:08.657Z,8.53
2019-04-11T15:29:40.189Z,4.17
2019-04-11T15:32:15.683Z,4.40
2019-04-11T15:34:48.731Z,4.78
2019-04-11T15:37:22.297Z,4.30
2019-04-11T15:39:59.763Z,4.62
2019-04-11T15:42:52.467Z,4.70
2019-04-11T15:45:31.688Z,4.90
2019-04-11T15:48:07.604Z,4.50
2019-04-11T15:51:06.490Z,5.62
2019-04-11T15:53:36.976Z,5.97
2019-04-11T15:56:28.737Z,8.75
2019-04-11T15:59:13.203Z,7.08
2019-04-11T16:02:04.391Z,6.17
2019-04-11T16:04:37.982Z,7.37
2019-04-11T16:07:14.547Z,7.15
2019-04-11T16:09:50.595Z,7.58
2019-04-11T16:12:30.192Z,8.25
2019-04-11T16:15:09.400Z,9.45
2019-04-11T16:17:54.444Z,10.05
2019-04-11T16:20:26.554Z,9.90
2019-04-11T16:23:15.950Z,10.53
2019-04-11T16:25:52.484Z,10.95
2019-04-11T16:28:42.193Z,14.63
2019-04-11T16:31:13.953Z,14.58
2019-04-11T16:33:54.012Z,16.23
2019-04-11T16:36:28.970Z,18.48
2019-04-11T16:39:02.340Z,20.60
2019-04-11T16:41:56.722Z,22.13
2019-04-11T16:44:32.530Z,26.48
2019-04-11T16:47:08.240Z,28.42
2019-04-11T16:49:38.827Z,24.00
2019-04-11T16:52:14.193Z,24.02
2019-04-11T16:54:48.215Z,23.62
2019-04-11T16:57:24.530Z,22.55
2019-04-11T16:59:58.395Z,23.35
2019-04-11T17:02:29.882Z,24.50
2019-04-11T17:05:03.789Z,28.77
2019-04-11T17:07:43.528Z,26.57
2019-04-11T17:10:16.773Z,28.02
2019-04-11T17:12:48.700Z,27.93
2019-04-11T17:15:20.780Z,31.97
2019-04-11T17:17:53.679Z,29.95
2019-04-11T17:20:26.850Z,31.85
2019-04-11T17:22:58.538Z,32.98
2019-04-11T17:25:32.931Z,35.67
2019-04-11T17:28:05.554Z,33.98
2019-04-11T17:30:37.437Z,32.78
2019-04-11T17:33:10.387Z,32.42
2019-04-11T17:35:42.532Z,31.90
2019-04-11T17:38:14.242Z,31.45
2019-04-11T17:40:46.388Z,35.23
2019-04-11T17:43:18.289Z,40.43
2019-04-11T17:45:51.442Z,39.30
2019-04-11T17:48:23.389Z,41.53
2019-04-11T17:50:55.155Z,42.70
2019-04-11T17:53:27.272Z,45.65
2019-04-11T17:56:00.907Z,45.30
2019-04-11T17:58:34.492Z,48.38
2019-04-11T18:01:07.412Z,43.63
2019-04-11T18:03:43.882Z,45.50
2019-04-11T18:06:17.804Z,47.05
2019-04-11T18:08:53.030Z,44.00
2019-04-11T18:11:29.932Z,45.25
2019-04-11T18:14:02.549Z,44.38
2019-04-11T18:16:34.349Z,42.83
2019-04-11T18:19:06.689Z,45.25
2019-04-11T18:21:39.444Z,45.98
2019-04-11T18:24:11.385Z,48.60
2019-04-11T18:26:43.130Z,45.33
2019-04-11T18:29:14.947Z,47.53
2019-04-11T18:31:50.433Z,45.20
2019-04-11T18:34:24.644Z,43.83
2019-04-11T18:36:57.273Z,44.58
2019-04-11T18:39:28.948Z,40.25
2019-04-11T18:42:01.143Z,39.13
2019-04-11T18:44:32.721Z,38.58
2019-04-11T18:47:09.733Z,42.23
2019-04-11T18:49:43.160Z,48.17
2019-04-11T18:52:19.952Z,45.10
2019-04-11T18:54:50.679Z,46.45
2019-04-11T18:57:23.397Z,47.73
2019-04-11T18:59:55.412Z,44.80
2019-04-11T19:02:27.071Z,45.88
2019-04-11T19:04:58.928Z,45.43
2019-04-11T19:07:31.051Z,43.75
2019-04-11T19:10:03.034Z,42.03
2019-04-11T19:12:36.420Z,44.18
2019-04-11T19:15:08.802Z,46.13
2019-04-11T19:17:40.422Z,44.03
2019-04-11T19:20:12.770Z,43.55
2019-04-11T19:22:44.996Z,43.08
2019-04-11T19:25:19.903Z,41.50
2019-04-11T19:27:54.257Z,41.37
2019-04-11T19:30:26.972Z,40.90
2019-04-11T19:32:58.730Z,39.35
2019-04-11T19:35:33.871Z,41.08
2019-04-11T19:38:07.044Z,40.20
2019-04-11T19:40:38.837Z,39.35
2019-04-11T19:43:10.682Z,41.70
2019-04-11T19:45:42.394Z,40.58
2019-04-11T19:48:14.196Z,38.88
2019-04-11T19:50:45.870Z,39.08
2019-04-11T19:53:18.325Z,36.98
2019-04-11T19:55:52.435Z,37.05
2019-04-11T19:58:26.965Z,37.50
2019-04-11T20:03:31.797Z,37.38
2019-04-11T20:06:07.233Z,37.17
2019-04-11T20:08:40.278Z,39.05
2019-04-11T20:11:12.700Z,39.35
2019-04-11T20:13:44.667Z,41.50
2019-04-11T20:16:16.394Z,41.42
2019-04-11T20:18:51.377Z,41.37
2019-04-11T20:21:22.472Z,42.70
2019-04-11T20:23:55.221Z,43.25
2019-04-11T20:26:28.728Z,44.30
2019-04-11T20:29:04.352Z,43.17
2019-04-11T20:31:37.091Z,42.17
2019-04-11T20:34:08.919Z,41.13
2019-04-11T20:36:41.235Z,38.42
2019-04-11T20:39:15.235Z,36.70
2019-04-11T20:41:46.847Z,37.00
2019-04-11T20:44:18.471Z,36.45
2019-04-11T20:46:50.174Z,36.17
2019-04-11T20:49:23.723Z,39.00
2019-04-11T20:51:55.819Z,38.15
2019-04-11T20:54:28.986Z,41.83
2019-04-11T20:57:00.737Z,49.33
2019-04-11T20:59:34.778Z,49.58
2019-04-11T21:02:07.121Z,48.13
2019-04-11T21:04:38.807Z,49.10
2019-04-11T21:07:10.444Z,42.20
2019-04-11T21:09:42.075Z,41.95
2019-04-11T21:12:13.771Z,42.13
2019-04-11T21:14:46.539Z,42.23
2019-04-11T21:17:18.070Z,40.40
2019-04-11T21:19:50.994Z,41.05
2019-04-11T21:22:24.199Z,42.67
2019-04-11T21:24:56.488Z,43.80
2019-04-11T21:27:28.896Z,44.80
2019-04-11T21:30:01.094Z,45.63
2019-04-11T21:32:34.122Z,43.15
2019-04-11T21:35:06.908Z,45.05
2019-04-11T21:37:38.304Z,40.83
2019-04-11T21:40:10.364Z,39.25
2019-04-11T21:42:41.910Z,38.80
2019-04-11T21:45:13.590Z,35.03
2019-04-11T21:47:45.288Z,35.23
2019-04-11T21:50:17.947Z,36.48
2019-04-11T21:52:49.705Z,34.65
2019-04-11T21:55:21.502Z,35.68
2019-04-11T21:57:53.163Z,38.90
2019-04-11T22:00:32.969Z,37.55
2019-04-11T22:03:06.723Z,38.15
2019-04-11T22:05:38.614Z,39.18
2019-04-11T22:08:10.166Z,38.78
2019-04-11T22:10:42.009Z,41.37
2019-04-11T22:13:13.693Z,49.88
2019-04-11T22:15:45.527Z,49.45
2019-04-11T22:18:17.087Z,44.58
2019-04-11T22:20:48.859Z,41.15
2019-04-11T22:23:20.608Z,43.38
2019-04-11T22:25:52.305Z,42.73
2019-04-11T22:28:36.893Z,42.25
2019-04-11T22:31:08.684Z,42.70
2019-04-11T22:33:44.918Z,44.60
2019-04-11T22:36:17.609Z,44.83
2019-04-11T22:38:49.385Z,44.50
2019-04-11T22:41:22.207Z,44.23
2019-04-11T22:43:53.866Z,44.55
2019-04-11T22:46:25.541Z,43.08
2019-04-11T22:48:57.320Z,41.58
2019-04-11T22:51:29.103Z,42.10
2019-04-11T22:54:01.674Z,40.17
2019-04-11T22:56:33.458Z,41.55
2019-04-11T22:59:05.086Z,40.92
2019-04-11T23:01:37.762Z,38.92
2019-04-11T23:04:09.380Z,41.20
2019-04-11T23:06:41.224Z,40.03
2019-04-11T23:09:12.956Z,41.68
2019-04-11T23:11:45.325Z,39.90
2019-04-11T23:14:16.987Z,38.85
2019-04-11T23:16:48.637Z,38.67
2019-04-11T23:19:20.177Z,37.90
2019-04-11T23:21:51.998Z,37.00
2019-04-11T23:24:23.476Z,37.53
2019-04-11T23:26:55.077Z,35.40
2019-04-11T23:29:26.718Z,33.40
2019-04-11T23:31:58.501Z,34.83
2019-04-11T23:34:30.067Z,33.58
2019-04-11T23:37:01.607Z,30.80
2019-04-11T23:39:33.119Z,32.80
2019-04-11T23:42:04.726Z,30.32
2019-04-11T23:44:36.876Z,29.90
2019-04-11T23:47:08.642Z,30.05
2019-04-11T23:49:40.340Z,28.52
2019-04-11T23:52:14.254Z,28.15
2019-04-11T23:54:45.990Z,29.07
2019-04-11T23:57:18.603Z,30.72
2019-04-11T23:59:50.417Z,29.87
